Georgetown, Alabama
Current Conditions -  °F | °C
As of 2:56 AM on Saturday 22 Nov 2014 (Local Time) from KMOB Reporting Station
Clear Clear  
Wind Chill: 44°   Ceiling: Unl
Heat Index: 48°   Visibility: 10mi
Dew Point: 42°   Wind: 8mph
Humidity: 80%   Direction: 60°ENE
Pressure: 30.28"   Gusts: NA
Location:  30.9846°N, 88.1229°W
Report Text: KMOB 220856Z AUTO 06007KT 10SM CLR 09/06 A3028 RMK AO2 SLP252 T00890056 55005
Loading
Personal Weather Stations






























Interactive Weather Map New forecast layout! Learn more

10-Day Weather Forecast

Advertisements
Track Severe Weather on mobile